sensor_id;sensor_type;location;lat;lon;timestamp;P1;durP1;ratioP1;P2;durP2;ratioP2
16800;SDS011;8518;53.236;10.384;2023-04-03T00:02:52;6.43;;;2.20;;
16800;SDS011;8518;53.236;10.384;2023-04-03T00:05:17;3.17;;;1.37;;
16800;SDS011;8518;53.236;10.384;2023-04-03T00:07:43;3.93;;;1.70;;
16800;SDS011;8518;53.236;10.384;2023-04-03T00:10:11;5.60;;;1.57;;
16800;SDS011;8518;53.236;10.384;2023-04-03T00:15:59;3.67;;;1.77;;
16800;SDS011;8518;53.236;10.384;2023-04-03T00:21:47;3.33;;;1.80;;
16800;SDS011;8518;53.236;10.384;2023-04-03T00:27:36;7.03;;;1.80;;
16800;SDS011;8518;53.236;10.384;2023-04-03T00:30:03;5.17;;;2.00;;
16800;SDS011;8518;53.236;10.384;2023-04-03T00:35:51;2.57;;;1.30;;
16800;SDS011;8518;53.236;10.384;2023-04-03T00:41:39;5.47;;;1.50;;
16800;SDS011;8518;53.236;10.384;2023-04-03T00:47:27;5.10;;;1.43;;
16800;SDS011;8518;53.236;10.384;2023-04-03T00:49:54;5.57;;;1.60;;
16800;SDS011;8518;53.236;10.384;2023-04-03T00:52:21;3.87;;;1.20;;
16800;SDS011;8518;53.236;10.384;2023-04-03T00:54:51;5.70;;;1.60;;
16800;SDS011;8518;53.236;10.384;2023-04-03T00:57:20;3.80;;;1.47;;
16800;SDS011;8518;53.236;10.384;2023-04-03T00:59:47;3.47;;;1.33;;
16800;SDS011;8518;53.236;10.384;2023-04-03T01:02:16;3.17;;;1.17;;
16800;SDS011;8518;53.236;10.384;2023-04-03T01:04:42;3.37;;;1.97;;
16800;SDS011;8518;53.236;10.384;2023-04-03T01:07:15;4.90;;;2.20;;
16800;SDS011;8518;53.236;10.384;2023-04-03T01:09:47;10.40;;;2.13;;
16800;SDS011;8518;53.236;10.384;2023-04-03T01:15:38;3.67;;;1.20;;
16800;SDS011;8518;53.236;10.384;2023-04-03T01:26:51;5.83;;;1.97;;
16800;SDS011;8518;53.236;10.384;2023-04-03T01:29:17;4.87;;;1.70;;
16800;SDS011;8518;53.236;10.384;2023-04-03T01:31:52;3.13;;;2.00;;
16800;SDS011;8518;53.236;10.384;2023-04-03T01:34:22;4.03;;;1.67;;
16800;SDS011;8518;53.236;10.384;2023-04-03T01:36:49;4.00;;;2.00;;
16800;SDS011;8518;53.236;10.384;2023-04-03T01:39:17;8.43;;;1.97;;
16800;SDS011;8518;53.236;10.384;2023-04-03T01:41:43;5.03;;;2.00;;
16800;SDS011;8518;53.236;10.384;2023-04-03T01:47:32;5.07;;;2.00;;
16800;SDS011;8518;53.236;10.384;2023-04-03T01:49:58;5.60;;;2.13;;
16800;SDS011;8518;53.236;10.384;2023-04-03T01:55:45;6.63;;;2.03;;
16800;SDS011;8518;53.236;10.384;2023-04-03T02:01:33;3.43;;;1.60;;
16800;SDS011;8518;53.236;10.384;2023-04-03T02:07:21;6.00;;;2.10;;
16800;SDS011;8518;53.236;10.384;2023-04-03T02:09:47;5.53;;;2.30;;
16800;SDS011;8518;53.236;10.384;2023-04-03T02:12:12;5.57;;;2.07;;
16800;SDS011;8518;53.236;10.384;2023-04-03T02:14:38;6.60;;;2.07;;
16800;SDS011;8518;53.236;10.384;2023-04-03T02:17:04;5.57;;;2.30;;
16800;SDS011;8518;53.236;10.384;2023-04-03T02:19:33;3.50;;;1.87;;
16800;SDS011;8518;53.236;10.384;2023-04-03T02:22:00;3.47;;;1.53;;
16800;SDS011;8518;53.236;10.384;2023-04-03T02:24:26;7.33;;;2.60;;
16800;SDS011;8518;53.236;10.384;2023-04-03T02:26:52;5.57;;;2.27;;
16800;SDS011;8518;53.236;10.384;2023-04-03T02:29:18;3.97;;;2.30;;
16800;SDS011;8518;53.236;10.384;2023-04-03T02:31:44;4.60;;;2.53;;
16800;SDS011;8518;53.236;10.384;2023-04-03T02:37:32;6.27;;;1.93;;
16800;SDS011;8518;53.236;10.384;2023-04-03T02:39:58;5.80;;;1.90;;
16800;SDS011;8518;53.236;10.384;2023-04-03T02:45:46;6.50;;;2.00;;
16800;SDS011;8518;53.236;10.384;2023-04-03T02:48:13;5.80;;;2.10;;
16800;SDS011;8518;53.236;10.384;2023-04-03T02:50:39;4.77;;;1.90;;
16800;SDS011;8518;53.236;10.384;2023-04-03T02:56:27;5.97;;;2.53;;
16800;SDS011;8518;53.236;10.384;2023-04-03T02:58:52;3.53;;;2.20;;
16800;SDS011;8518;53.236;10.384;2023-04-03T03:01:18;3.27;;;2.07;;
16800;SDS011;8518;53.236;10.384;2023-04-03T03:07:05;6.13;;;2.07;;
16800;SDS011;8518;53.236;10.384;2023-04-03T03:09:31;4.57;;;2.07;;
16800;SDS011;8518;53.236;10.384;2023-04-03T03:11:57;2.73;;;1.90;;
16800;SDS011;8518;53.236;10.384;2023-04-03T03:14:23;4.27;;;2.30;;
16800;SDS011;8518;53.236;10.384;2023-04-03T03:16:48;9.23;;;2.57;;
16800;SDS011;8518;53.236;10.384;2023-04-03T03:19:14;5.20;;;2.50;;
16800;SDS011;8518;53.236;10.384;2023-04-03T03:21:40;6.23;;;2.23;;
16800;SDS011;8518;53.236;10.384;2023-04-03T03:27:27;7.23;;;2.40;;
16800;SDS011;8518;53.236;10.384;2023-04-03T03:29:53;6.87;;;2.40;;
16800;SDS011;8518;53.236;10.384;2023-04-03T03:32:19;4.30;;;2.10;;
16800;SDS011;8518;53.236;10.384;2023-04-03T03:34:44;8.17;;;2.27;;
16800;SDS011;8518;53.236;10.384;2023-04-03T03:37:10;5.87;;;2.37;;
16800;SDS011;8518;53.236;10.384;2023-04-03T03:39:35;5.97;;;2.80;;
16800;SDS011;8518;53.236;10.384;2023-04-03T03:42:01;5.93;;;2.40;;
16800;SDS011;8518;53.236;10.384;2023-04-03T03:44:27;5.10;;;2.27;;
16800;SDS011;8518;53.236;10.384;2023-04-03T03:46:54;5.87;;;2.90;;
16800;SDS011;8518;53.236;10.384;2023-04-03T03:49:20;6.57;;;2.27;;
16800;SDS011;8518;53.236;10.384;2023-04-03T03:51:46;3.80;;;2.03;;
16800;SDS011;8518;53.236;10.384;2023-04-03T03:57:34;4.07;;;2.50;;
16800;SDS011;8518;53.236;10.384;2023-04-03T04:00:00;5.70;;;2.60;;
16800;SDS011;8518;53.236;10.384;2023-04-03T04:05:48;3.23;;;2.27;;
16800;SDS011;8518;53.236;10.384;2023-04-03T04:08:14;4.70;;;2.13;;
16800;SDS011;8518;53.236;10.384;2023-04-03T04:10:40;4.77;;;1.93;;
16800;SDS011;8518;53.236;10.384;2023-04-03T04:16:28;6.50;;;2.37;;
16800;SDS011;8518;53.236;10.384;2023-04-03T04:18:53;4.17;;;2.00;;
16800;SDS011;8518;53.236;10.384;2023-04-03T04:21:19;5.13;;;2.33;;
16800;SDS011;8518;53.236;10.384;2023-04-03T04:27:06;6.27;;;2.07;;
16800;SDS011;8518;53.236;10.384;2023-04-03T04:32:55;5.07;;;2.07;;
16800;SDS011;8518;53.236;10.384;2023-04-03T04:35:21;3.80;;;2.00;;
16800;SDS011;8518;53.236;10.384;2023-04-03T04:37:48;5.63;;;2.40;;
16800;SDS011;8518;53.236;10.384;2023-04-03T04:40:13;4.97;;;1.87;;
16800;SDS011;8518;53.236;10.384;2023-04-03T04:46:12;5.87;;;2.70;;
16800;SDS011;8518;53.236;10.384;2023-04-03T04:48:37;4.67;;;2.30;;
16800;SDS011;8518;53.236;10.384;2023-04-03T04:51:03;4.67;;;2.33;;
16800;SDS011;8518;53.236;10.384;2023-04-03T04:56:51;3.47;;;2.10;;
16800;SDS011;8518;53.236;10.384;2023-04-03T04:59:17;5.07;;;2.47;;
16800;SDS011;8518;53.236;10.384;2023-04-03T05:01:42;4.73;;;2.17;;
16800;SDS011;8518;53.236;10.384;2023-04-03T05:07:30;3.33;;;2.30;;
16800;SDS011;8518;53.236;10.384;2023-04-03T05:09:56;7.33;;;3.10;;
16800;SDS011;8518;53.236;10.384;2023-04-03T05:15:44;5.13;;;2.10;;
16800;SDS011;8518;53.236;10.384;2023-04-03T05:18:09;6.50;;;2.20;;
16800;SDS011;8518;53.236;10.384;2023-04-03T05:23:58;4.67;;;2.10;;
16800;SDS011;8518;53.236;10.384;2023-04-03T05:26:24;3.77;;;2.23;;
16800;SDS011;8518;53.236;10.384;2023-04-03T05:28:51;5.53;;;2.70;;
16800;SDS011;8518;53.236;10.384;2023-04-03T05:31:17;5.13;;;2.50;;
16800;SDS011;8518;53.236;10.384;2023-04-03T05:37:05;8.50;;;2.67;;
16800;SDS011;8518;53.236;10.384;2023-04-03T05:42:52;5.13;;;2.83;;
16800;SDS011;8518;53.236;10.384;2023-04-03T05:45:18;6.40;;;2.77;;
16800;SDS011;8518;53.236;10.384;2023-04-03T05:47:44;4.53;;;2.57;;
16800;SDS011;8518;53.236;10.384;2023-04-03T05:50:09;6.30;;;2.73;;
16800;SDS011;8518;53.236;10.384;2023-04-03T05:55:57;6.40;;;2.50;;
16800;SDS011;8518;53.236;10.384;2023-04-03T06:01:45;6.27;;;2.23;;
16800;SDS011;8518;53.236;10.384;2023-04-03T06:07:32;3.70;;;1.90;;
16800;SDS011;8518;53.236;10.384;2023-04-03T06:09:58;7.70;;;2.47;;
16800;SDS011;8518;53.236;10.384;2023-04-03T06:15:46;5.03;;;2.07;;
16800;SDS011;8518;53.236;10.384;2023-04-03T06:18:11;4.13;;;1.80;;
16800;SDS011;8518;53.236;10.384;2023-04-03T06:20:37;3.50;;;1.60;;
16800;SDS011;8518;53.236;10.384;2023-04-03T06:26:25;5.93;;;1.83;;
16800;SDS011;8518;53.236;10.384;2023-04-03T06:32:13;5.77;;;1.83;;
16800;SDS011;8518;53.236;10.384;2023-04-03T06:34:39;4.93;;;1.77;;
16800;SDS011;8518;53.236;10.384;2023-04-03T06:37:04;4.77;;;1.87;;
16800;SDS011;8518;53.236;10.384;2023-04-03T06:39:30;2.60;;;1.80;;
16800;SDS011;8518;53.236;10.384;2023-04-03T06:41:56;5.73;;;1.67;;
16800;SDS011;8518;53.236;10.384;2023-04-03T06:44:21;8.97;;;2.10;;
16800;SDS011;8518;53.236;10.384;2023-04-03T06:46:47;5.53;;;1.67;;
16800;SDS011;8518;53.236;10.384;2023-04-03T06:49:13;4.10;;;1.90;;
16800;SDS011;8518;53.236;10.384;2023-04-03T06:51:40;2.37;;;1.40;;
16800;SDS011;8518;53.236;10.384;2023-04-03T06:57:30;5.67;;;1.60;;
16800;SDS011;8518;53.236;10.384;2023-04-03T06:59:56;4.07;;;1.83;;
16800;SDS011;8518;53.236;10.384;2023-04-03T07:05:43;3.50;;;1.27;;
16800;SDS011;8518;53.236;10.384;2023-04-03T07:08:09;4.53;;;1.67;;
16800;SDS011;8518;53.236;10.384;2023-04-03T07:10:35;4.03;;;1.33;;
16800;SDS011;8518;53.236;10.384;2023-04-03T07:16:25;2.47;;;1.10;;
16800;SDS011;8518;53.236;10.384;2023-04-03T07:18:51;2.97;;;1.30;;
16800;SDS011;8518;53.236;10.384;2023-04-03T07:21:16;5.33;;;1.60;;
16800;SDS011;8518;53.236;10.384;2023-04-03T07:27:04;2.73;;;1.10;;
16800;SDS011;8518;53.236;10.384;2023-04-03T07:29:30;3.90;;;1.60;;
16800;SDS011;8518;53.236;10.384;2023-04-03T07:31:56;4.30;;;1.53;;
16800;SDS011;8518;53.236;10.384;2023-04-03T07:34:22;3.20;;;0.97;;
16800;SDS011;8518;53.236;10.384;2023-04-03T07:36:48;3.07;;;1.37;;
16800;SDS011;8518;53.236;10.384;2023-04-03T07:39:14;2.30;;;1.07;;
16800;SDS011;8518;53.236;10.384;2023-04-03T07:41:45;3.43;;;1.00;;
16800;SDS011;8518;53.236;10.384;2023-04-03T07:47:38;2.77;;;1.07;;
16800;SDS011;8518;53.236;10.384;2023-04-03T07:50:07;3.60;;;1.23;;
16800;SDS011;8518;53.236;10.384;2023-04-03T07:55:58;3.43;;;1.00;;
16800;SDS011;8518;53.236;10.384;2023-04-03T07:58:27;2.37;;;0.80;;
16800;SDS011;8518;53.236;10.384;2023-04-03T08:00:54;2.63;;;0.90;;
16800;SDS011;8518;53.236;10.384;2023-04-03T08:06:42;3.27;;;1.10;;
16800;SDS011;8518;53.236;10.384;2023-04-03T08:09:07;3.00;;;0.90;;
16800;SDS011;8518;53.236;10.384;2023-04-03T08:11:34;1.47;;;0.70;;
16800;SDS011;8518;53.236;10.384;2023-04-03T08:17:25;2.93;;;0.87;;
16800;SDS011;8518;53.236;10.384;2023-04-03T08:19:51;3.25;;;1.10;;
16800;SDS011;8518;53.236;10.384;2023-04-03T08:22:19;2.35;;;0.90;;
16800;SDS011;8518;53.236;10.384;2023-04-03T08:24:46;2.50;;;1.00;;
16800;SDS011;8518;53.236;10.384;2023-04-03T08:27:11;2.53;;;0.98;;
16800;SDS011;8518;53.236;10.384;2023-04-03T08:29:38;3.50;;;1.10;;
16800;SDS011;8518;53.236;10.384;2023-04-03T08:32:04;1.40;;;0.85;;
16800;SDS011;8518;53.236;10.384;2023-04-03T08:34:33;3.40;;;1.15;;
16800;SDS011;8518;53.236;10.384;2023-04-03T08:37:04;1.98;;;0.80;;
16800;SDS011;8518;53.236;10.384;2023-04-03T08:39:30;1.52;;;0.80;;
16800;SDS011;8518;53.236;10.384;2023-04-03T08:41:57;2.50;;;0.90;;
16800;SDS011;8518;53.236;10.384;2023-04-03T08:44:38;1.73;;;1.00;;
16800;SDS011;8518;53.236;10.384;2023-04-03T08:49:56;1.70;;;1.00;;
16800;SDS011;8518;53.236;10.384;2023-04-03T08:55:47;2.58;;;1.08;;
16800;SDS011;8518;53.236;10.384;2023-04-03T08:58:21;1.35;;;0.70;;
16800;SDS011;8518;53.236;10.384;2023-04-03T09:00:56;2.33;;;0.73;;
16800;SDS011;8518;53.236;10.384;2023-04-03T09:06:54;2.10;;;0.70;;
16800;SDS011;8518;53.236;10.384;2023-04-03T09:09:37;1.75;;;0.95;;
16800;SDS011;8518;53.236;10.384;2023-04-03T09:14:46;2.03;;;0.77;;
16800;SDS011;8518;53.236;10.384;2023-04-03T09:20:46;2.03;;;0.80;;
16800;SDS011;8518;53.236;10.384;2023-04-03T09:27:01;2.85;;;0.80;;
16800;SDS011;8518;53.236;10.384;2023-04-03T09:29:31;1.73;;;0.77;;
16800;SDS011;8518;53.236;10.384;2023-04-03T09:32:02;1.60;;;0.60;;
16800;SDS011;8518;53.236;10.384;2023-04-03T09:34:35;2.28;;;0.75;;
16800;SDS011;8518;53.236;10.384;2023-04-03T09:37:45;1.90;;;0.63;;
16800;SDS011;8518;53.236;10.384;2023-04-03T09:53:24;2.05;;;0.90;;
16800;SDS011;8518;53.236;10.384;2023-04-03T09:55:57;1.90;;;0.70;;
16800;SDS011;8518;53.236;10.384;2023-04-03T09:58:37;1.83;;;0.73;;
16800;SDS011;8518;53.236;10.384;2023-04-03T10:01:09;1.40;;;0.88;;
16800;SDS011;8518;53.236;10.384;2023-04-03T10:07:48;1.17;;;0.55;;
16800;SDS011;8518;53.236;10.384;2023-04-03T10:16:11;1.83;;;0.60;;
16800;SDS011;8518;53.236;10.384;2023-04-03T10:21:20;2.38;;;0.60;;
16800;SDS011;8518;53.236;10.384;2023-04-03T10:36:07;2.63;;;0.80;;
16800;SDS011;8518;53.236;10.384;2023-04-03T10:54:08;2.22;;;0.60;;
16800;SDS011;8518;53.236;10.384;2023-04-03T11:05:34;1.20;;;0.60;;
16800;SDS011;8518;53.236;10.384;2023-04-03T11:08:09;2.63;;;0.77;;
16800;SDS011;8518;53.236;10.384;2023-04-03T11:10:48;1.13;;;0.70;;
16800;SDS011;8518;53.236;10.384;2023-04-03T11:16:43;1.20;;;0.70;;
16800;SDS011;8518;53.236;10.384;2023-04-03T11:22:42;1.42;;;0.82;;
16800;SDS011;8518;53.236;10.384;2023-04-03T11:30:42;1.30;;;0.80;;
16800;SDS011;8518;53.236;10.384;2023-04-03T11:36:39;1.70;;;0.83;;
16800;SDS011;8518;53.236;10.384;2023-04-03T11:39:29;4.07;;;0.87;;
16800;SDS011;8518;53.236;10.384;2023-04-03T11:44:48;2.83;;;0.70;;
16800;SDS011;8518;53.236;10.384;2023-04-03T11:50:59;1.52;;;0.80;;
16800;SDS011;8518;53.236;10.384;2023-04-03T11:56:47;2.17;;;0.87;;
16800;SDS011;8518;53.236;10.384;2023-04-03T12:04:18;1.13;;;0.80;;
16800;SDS011;8518;53.236;10.384;2023-04-03T12:09:24;1.63;;;0.88;;
16800;SDS011;8518;53.236;10.384;2023-04-03T12:11:59;2.72;;;0.90;;
16800;SDS011;8518;53.236;10.384;2023-04-03T12:14:26;1.95;;;0.73;;
16800;SDS011;8518;53.236;10.384;2023-04-03T12:16:56;2.15;;;0.90;;
16800;SDS011;8518;53.236;10.384;2023-04-03T12:24:31;2.13;;;0.73;;
16800;SDS011;8518;53.236;10.384;2023-04-03T12:27:17;2.13;;;0.80;;
16800;SDS011;8518;53.236;10.384;2023-04-03T12:35:56;2.50;;;0.90;;
16800;SDS011;8518;53.236;10.384;2023-04-03T12:44:36;2.07;;;0.87;;
16800;SDS011;8518;53.236;10.384;2023-04-03T12:47:33;2.40;;;1.00;;
16800;SDS011;8518;53.236;10.384;2023-04-03T12:50:03;1.80;;;0.70;;
16800;SDS011;8518;53.236;10.384;2023-04-03T12:55:55;4.03;;;1.13;;
16800;SDS011;8518;53.236;10.384;2023-04-03T12:58:43;3.03;;;1.00;;
16800;SDS011;8518;53.236;10.384;2023-04-03T13:01:12;2.43;;;0.97;;
16800;SDS011;8518;53.236;10.384;2023-04-03T13:07:18;1.90;;;0.70;;
16800;SDS011;8518;53.236;10.384;2023-04-03T13:09:57;3.57;;;1.47;;
16800;SDS011;8518;53.236;10.384;2023-04-03T13:15:48;2.47;;;0.80;;
16800;SDS011;8518;53.236;10.384;2023-04-03T13:18:25;1.83;;;0.82;;
16800;SDS011;8518;53.236;10.384;2023-04-03T13:21:15;2.45;;;0.95;;
16800;SDS011;8518;53.236;10.384;2023-04-03T13:27:06;1.45;;;0.80;;
16800;SDS011;8518;53.236;10.384;2023-04-03T13:29:34;2.53;;;0.88;;
16800;SDS011;8518;53.236;10.384;2023-04-03T13:32:03;2.17;;;0.90;;
16800;SDS011;8518;53.236;10.384;2023-04-03T13:34:38;2.23;;;1.33;;
16800;SDS011;8518;53.236;10.384;2023-04-03T13:37:06;2.47;;;0.80;;
16800;SDS011;8518;53.236;10.384;2023-04-03T13:39:45;2.10;;;0.93;;
16800;SDS011;8518;53.236;10.384;2023-04-03T13:46:00;2.23;;;0.80;;
16800;SDS011;8518;53.236;10.384;2023-04-03T13:48:45;2.40;;;0.80;;
16800;SDS011;8518;53.236;10.384;2023-04-03T13:57:03;2.07;;;0.80;;
16800;SDS011;8518;53.236;10.384;2023-04-03T13:59:38;1.77;;;0.80;;
16800;SDS011;8518;53.236;10.384;2023-04-03T14:04:31;1.47;;;0.70;;
16800;SDS011;8518;53.236;10.384;2023-04-03T14:06:57;1.43;;;0.60;;
16800;SDS011;8518;53.236;10.384;2023-04-03T14:09:25;2.60;;;0.90;;
16800;SDS011;8518;53.236;10.384;2023-04-03T14:11:53;1.83;;;0.60;;
16800;SDS011;8518;53.236;10.384;2023-04-03T14:14:24;1.50;;;0.63;;
16800;SDS011;8518;53.236;10.384;2023-04-03T14:17:03;1.93;;;0.50;;
16800;SDS011;8518;53.236;10.384;2023-04-03T14:19:37;0.83;;;0.47;;
16800;SDS011;8518;53.236;10.384;2023-04-03T14:22:10;2.77;;;0.80;;
16800;SDS011;8518;53.236;10.384;2023-04-03T14:24:58;1.80;;;0.70;;
16800;SDS011;8518;53.236;10.384;2023-04-03T14:27:26;1.80;;;0.60;;
16800;SDS011;8518;53.236;10.384;2023-04-03T14:30:08;1.93;;;0.50;;
16800;SDS011;8518;53.236;10.384;2023-04-03T14:36:13;2.03;;;0.80;;
16800;SDS011;8518;53.236;10.384;2023-04-03T14:38:41;1.63;;;0.80;;
16800;SDS011;8518;53.236;10.384;2023-04-03T14:41:12;2.17;;;0.77;;
16800;SDS011;8518;53.236;10.384;2023-04-03T14:47:01;1.83;;;1.07;;
16800;SDS011;8518;53.236;10.384;2023-04-03T14:49:27;1.97;;;0.77;;
16800;SDS011;8518;53.236;10.384;2023-04-03T14:51:54;1.20;;;0.50;;
16800;SDS011;8518;53.236;10.384;2023-04-03T14:54:22;2.13;;;0.80;;
16800;SDS011;8518;53.236;10.384;2023-04-03T14:56:53;2.70;;;0.80;;
16800;SDS011;8518;53.236;10.384;2023-04-03T14:59:20;1.67;;;0.80;;
16800;SDS011;8518;53.236;10.384;2023-04-03T15:01:46;1.47;;;0.77;;
16800;SDS011;8518;53.236;10.384;2023-04-03T15:07:39;1.43;;;0.50;;
16800;SDS011;8518;53.236;10.384;2023-04-03T15:10:17;1.63;;;0.70;;
16800;SDS011;8518;53.236;10.384;2023-04-03T15:16:15;1.73;;;0.60;;
16800;SDS011;8518;53.236;10.384;2023-04-03T15:18:43;1.57;;;0.60;;
16800;SDS011;8518;53.236;10.384;2023-04-03T15:21:11;1.40;;;0.73;;
16800;SDS011;8518;53.236;10.384;2023-04-03T15:26:59;1.43;;;0.60;;
16800;SDS011;8518;53.236;10.384;2023-04-03T15:29:28;2.20;;;0.60;;
16800;SDS011;8518;53.236;10.384;2023-04-03T15:31:57;1.43;;;0.50;;
16800;SDS011;8518;53.236;10.384;2023-04-03T15:34:22;1.63;;;0.60;;
16800;SDS011;8518;53.236;10.384;2023-04-03T15:36:50;2.27;;;0.60;;
16800;SDS011;8518;53.236;10.384;2023-04-03T15:39:17;1.83;;;0.97;;
16800;SDS011;8518;53.236;10.384;2023-04-03T15:41:43;1.00;;;0.60;;
16800;SDS011;8518;53.236;10.384;2023-04-03T15:47:32;2.03;;;0.90;;
16800;SDS011;8518;53.236;10.384;2023-04-03T15:49:57;1.63;;;0.60;;
16800;SDS011;8518;53.236;10.384;2023-04-03T15:55:47;2.40;;;0.60;;
16800;SDS011;8518;53.236;10.384;2023-04-03T16:01:34;3.30;;;0.80;;
16800;SDS011;8518;53.236;10.384;2023-04-03T16:07:23;4.63;;;0.70;;
16800;SDS011;8518;53.236;10.384;2023-04-03T16:09:49;2.90;;;0.60;;
16800;SDS011;8518;53.236;10.384;2023-04-03T16:12:15;2.60;;;0.70;;
16800;SDS011;8518;53.236;10.384;2023-04-03T16:14:43;1.00;;;0.60;;
16800;SDS011;8518;53.236;10.384;2023-04-03T16:17:09;1.20;;;0.50;;
16800;SDS011;8518;53.236;10.384;2023-04-03T16:19:35;1.53;;;0.60;;
16800;SDS011;8518;53.236;10.384;2023-04-03T16:22:03;2.87;;;0.90;;
16800;SDS011;8518;53.236;10.384;2023-04-03T16:24:29;1.87;;;0.70;;
16800;SDS011;8518;53.236;10.384;2023-04-03T16:26:55;1.60;;;0.73;;
16800;SDS011;8518;53.236;10.384;2023-04-03T16:29:21;0.87;;;0.43;;
16800;SDS011;8518;53.236;10.384;2023-04-03T16:31:46;2.33;;;0.80;;
16800;SDS011;8518;53.236;10.384;2023-04-03T16:37:34;1.93;;;0.90;;
16800;SDS011;8518;53.236;10.384;2023-04-03T16:43:22;1.30;;;0.60;;
16800;SDS011;8518;53.236;10.384;2023-04-03T16:45:48;2.77;;;0.77;;
16800;SDS011;8518;53.236;10.384;2023-04-03T16:48:13;1.33;;;0.80;;
16800;SDS011;8518;53.236;10.384;2023-04-03T16:50:39;2.23;;;1.00;;
16800;SDS011;8518;53.236;10.384;2023-04-03T16:56:28;2.23;;;0.73;;
16800;SDS011;8518;53.236;10.384;2023-04-03T16:58:54;2.93;;;0.80;;
16800;SDS011;8518;53.236;10.384;2023-04-03T17:01:21;1.60;;;0.87;;
16800;SDS011;8518;53.236;10.384;2023-04-03T17:07:12;1.67;;;0.80;;
16800;SDS011;8518;53.236;10.384;2023-04-03T17:09:38;2.30;;;0.70;;
16800;SDS011;8518;53.236;10.384;2023-04-03T17:12:03;2.47;;;0.87;;
16800;SDS011;8518;53.236;10.384;2023-04-03T17:14:29;2.47;;;0.97;;
16800;SDS011;8518;53.236;10.384;2023-04-03T17:16:58;2.03;;;0.80;;
16800;SDS011;8518;53.236;10.384;2023-04-03T17:19:27;5.03;;;1.03;;
16800;SDS011;8518;53.236;10.384;2023-04-03T17:21:56;2.43;;;0.90;;
16800;SDS011;8518;53.236;10.384;2023-04-03T17:24:22;1.70;;;0.60;;
16800;SDS011;8518;53.236;10.384;2023-04-03T17:26:48;2.10;;;0.97;;
16800;SDS011;8518;53.236;10.384;2023-04-03T17:29:14;3.90;;;1.07;;
16800;SDS011;8518;53.236;10.384;2023-04-03T17:31:41;3.53;;;1.27;;
16800;SDS011;8518;53.236;10.384;2023-04-03T17:37:29;4.27;;;1.00;;
16800;SDS011;8518;53.236;10.384;2023-04-03T17:39:54;2.37;;;1.17;;
16800;SDS011;8518;53.236;10.384;2023-04-03T17:42:20;2.17;;;0.80;;
16800;SDS011;8518;53.236;10.384;2023-04-03T17:44:46;2.17;;;0.90;;
16800;SDS011;8518;53.236;10.384;2023-04-03T17:47:11;1.93;;;1.00;;
16800;SDS011;8518;53.236;10.384;2023-04-03T17:49:39;2.73;;;1.07;;
16800;SDS011;8518;53.236;10.384;2023-04-03T17:52:05;1.97;;;1.00;;
16800;SDS011;8518;53.236;10.384;2023-04-03T17:54:31;2.07;;;1.30;;
16800;SDS011;8518;53.236;10.384;2023-04-03T17:56:56;3.20;;;1.00;;
16800;SDS011;8518;53.236;10.384;2023-04-03T17:59:22;2.27;;;1.07;;
16800;SDS011;8518;53.236;10.384;2023-04-03T18:01:47;3.17;;;1.00;;
16800;SDS011;8518;53.236;10.384;2023-04-03T18:07:36;1.73;;;1.00;;
16800;SDS011;8518;53.236;10.384;2023-04-03T18:10:03;1.80;;;1.00;;
16800;SDS011;8518;53.236;10.384;2023-04-03T18:15:54;3.10;;;1.20;;
16800;SDS011;8518;53.236;10.384;2023-04-03T18:18:20;3.13;;;1.53;;
16800;SDS011;8518;53.236;10.384;2023-04-03T18:20:45;3.33;;;1.40;;
16800;SDS011;8518;53.236;10.384;2023-04-03T18:26:37;2.10;;;1.00;;
16800;SDS011;8518;53.236;10.384;2023-04-03T18:29:04;3.63;;;1.37;;
16800;SDS011;8518;53.236;10.384;2023-04-03T18:31:33;2.57;;;1.30;;
16800;SDS011;8518;53.236;10.384;2023-04-03T18:37:22;2.47;;;1.40;;
16800;SDS011;8518;53.236;10.384;2023-04-03T18:39:49;3.17;;;1.20;;
16800;SDS011;8518;53.236;10.384;2023-04-03T18:42:16;1.83;;;1.57;;
16800;SDS011;8518;53.236;10.384;2023-04-03T18:44:44;2.97;;;1.37;;
16800;SDS011;8518;53.236;10.384;2023-04-03T18:47:13;4.63;;;1.47;;
16800;SDS011;8518;53.236;10.384;2023-04-03T18:49:39;3.23;;;1.13;;
16800;SDS011;8518;53.236;10.384;2023-04-03T18:52:06;3.63;;;1.30;;
16800;SDS011;8518;53.236;10.384;2023-04-03T18:54:34;3.13;;;1.60;;
16800;SDS011;8518;53.236;10.384;2023-04-03T18:57:01;2.80;;;1.37;;
16800;SDS011;8518;53.236;10.384;2023-04-03T18:59:27;3.37;;;1.60;;
16800;SDS011;8518;53.236;10.384;2023-04-03T19:01:53;3.27;;;1.33;;
16800;SDS011;8518;53.236;10.384;2023-04-03T19:04:19;3.33;;;1.40;;
16800;SDS011;8518;53.236;10.384;2023-04-03T19:06:45;2.53;;;1.43;;
16800;SDS011;8518;53.236;10.384;2023-04-03T19:09:11;3.77;;;1.60;;
16800;SDS011;8518;53.236;10.384;2023-04-03T19:11:37;2.80;;;1.60;;
16800;SDS011;8518;53.236;10.384;2023-04-03T19:17:25;3.30;;;1.53;;
16800;SDS011;8518;53.236;10.384;2023-04-03T19:23:14;4.03;;;1.73;;
16800;SDS011;8518;53.236;10.384;2023-04-03T19:25:40;4.53;;;2.00;;
16800;SDS011;8518;53.236;10.384;2023-04-03T19:28:06;3.90;;;1.97;;
16800;SDS011;8518;53.236;10.384;2023-04-03T19:30:33;3.80;;;1.90;;
16800;SDS011;8518;53.236;10.384;2023-04-03T19:36:24;4.77;;;2.10;;
16800;SDS011;8518;53.236;10.384;2023-04-03T19:38:50;3.77;;;1.90;;
16800;SDS011;8518;53.236;10.384;2023-04-03T19:41:20;3.47;;;1.80;;
16800;SDS011;8518;53.236;10.384;2023-04-03T19:47:09;5.40;;;2.10;;
16800;SDS011;8518;53.236;10.384;2023-04-03T19:49:37;3.33;;;1.67;;
16800;SDS011;8518;53.236;10.384;2023-04-03T19:52:03;4.70;;;2.00;;
16800;SDS011;8518;53.236;10.384;2023-04-03T19:54:29;5.17;;;2.07;;
16800;SDS011;8518;53.236;10.384;2023-04-03T19:56:55;4.13;;;2.03;;
16800;SDS011;8518;53.236;10.384;2023-04-03T19:59:22;4.20;;;1.77;;
16800;SDS011;8518;53.236;10.384;2023-04-03T20:01:48;6.13;;;2.13;;
16800;SDS011;8518;53.236;10.384;2023-04-03T20:07:36;2.90;;;2.00;;
16800;SDS011;8518;53.236;10.384;2023-04-03T20:10:02;3.57;;;1.93;;
16800;SDS011;8518;53.236;10.384;2023-04-03T20:15:49;2.20;;;1.33;;
16800;SDS011;8518;53.236;10.384;2023-04-03T20:18:16;3.53;;;1.60;;
16800;SDS011;8518;53.236;10.384;2023-04-03T20:20:53;3.70;;;2.17;;
16800;SDS011;8518;53.236;10.384;2023-04-03T20:26:41;4.00;;;2.33;;
16800;SDS011;8518;53.236;10.384;2023-04-03T20:29:10;5.03;;;1.77;;
16800;SDS011;8518;53.236;10.384;2023-04-03T20:31:38;7.43;;;1.93;;
16800;SDS011;8518;53.236;10.384;2023-04-03T20:37:28;3.13;;;1.87;;
16800;SDS011;8518;53.236;10.384;2023-04-03T20:39:53;3.63;;;1.60;;
16800;SDS011;8518;53.236;10.384;2023-04-03T20:42:19;3.40;;;1.90;;
16800;SDS011;8518;53.236;10.384;2023-04-03T20:44:45;7.23;;;1.93;;
16800;SDS011;8518;53.236;10.384;2023-04-03T20:47:14;4.27;;;1.97;;
16800;SDS011;8518;53.236;10.384;2023-04-03T20:49:40;3.90;;;2.27;;
16800;SDS011;8518;53.236;10.384;2023-04-03T20:52:07;4.53;;;2.00;;
16800;SDS011;8518;53.236;10.384;2023-04-03T20:54:36;2.73;;;2.10;;
16800;SDS011;8518;53.236;10.384;2023-04-03T20:57:02;4.60;;;2.37;;
16800;SDS011;8518;53.236;10.384;2023-04-03T20:59:28;4.33;;;2.20;;
16800;SDS011;8518;53.236;10.384;2023-04-03T21:01:54;2.80;;;1.67;;
16800;SDS011;8518;53.236;10.384;2023-04-03T21:19:18;4.87;;;1.97;;
16800;SDS011;8518;53.236;10.384;2023-04-03T21:21:44;4.27;;;2.13;;
16800;SDS011;8518;53.236;10.384;2023-04-03T21:27:33;3.33;;;1.60;;
16800;SDS011;8518;53.236;10.384;2023-04-03T21:29:59;4.23;;;2.20;;
16800;SDS011;8518;53.236;10.384;2023-04-03T21:35:49;5.53;;;2.60;;
16800;SDS011;8518;53.236;10.384;2023-04-03T21:41:43;4.33;;;2.00;;
16800;SDS011;8518;53.236;10.384;2023-04-03T21:47:31;2.50;;;1.40;;
16800;SDS011;8518;53.236;10.384;2023-04-03T21:49:59;2.97;;;1.60;;
16800;SDS011;8518;53.236;10.384;2023-04-03T21:55:51;2.87;;;1.37;;
16800;SDS011;8518;53.236;10.384;2023-04-03T21:58:18;2.53;;;1.60;;
16800;SDS011;8518;53.236;10.384;2023-04-03T22:00:44;5.27;;;1.87;;
16800;SDS011;8518;53.236;10.384;2023-04-03T22:06:32;2.53;;;1.57;;